Airfield :
LOGIN :

Register | Disclaimer

   EN    FR    IT 

 










Legend :    VFR   Marginal VFR   IFR   Intensive IFR   Very Intensive IFR
Visi :
Ceiling :
>= 8 km
>= 3000ft
5 to 8 km
1000 to 3000 ft
1500m to 5 km
500 to 1000 ft
800 to 1500m
200 to 500 ft
< 800m
< 200 ft
Symbols :   Thunderstorms  Fog  Heavy snow  Heavy precipitations  Wind > 20 kt
SIGMETs :     Misc.  Thunderstorms  Icing  Turbulence  Mountain Waves  Volcanic Ashes







- Airport Elevation : 1959 ft
- IATA code : HOQ


EDQM - Hof Plauen

CURRENT METAR :
  • 241050Z 04008KT 9999 BKN037 BKN053 23/14 Q1023

EXPIRED METARs :
  • 241020Z 09006KT 060V140 9999 SCT035 23/15 Q1023
  • 240950Z 10007KT CAVOK 22/15 Q1023
  • 240920Z 09007KT 060V160 CAVOK 22/15 Q1024
  • 240850Z 07007KT 030V100 CAVOK 22/15 Q1024
  • 240820Z 08006KT 050V110 CAVOK 20/14 Q1024

TAF TAF EDQM
Valid from the 24 at 09:00 until the 24 at 18:00 UTC


240800Z 2409/2418 08006KT 9999 SCT035
PROB30
TEMPO 2416/2418 SHRA SCT030TCU
No reported NOTAMs for that airfield.



MET'MAP, your aeronautical weather chart ! - Copyright ORBIFLY December 2007 - Disclaimer

ORBIFLY MET'MAP TEAM :

Programming & Development : Alexandra Zaïnal
Concept & Development : Baudouin d'Aumeries
Co-Development & Prog : Marc-Olivier Méhu
Technical & hardware support : Manuel Goepfert

Contact : metmap@orbifly.com




SOURCES & CREDITS :

   NOAA